Flight Track Log - Related Links

Times and Time Zones

All times are in EST time to prevent confusion due to time zone crossing. See the SKW5550 flight status page for this flight to view local times or setup timezone preferences in your user account.

Time Position Orientation Groundspeed Altitude Reporting Facility
EST Latitude Longitude Course Direction KTS MPH feet Rate Location/Type
Sat 07:58:03 AM 44.4992 -109.0628 159° South 158 182 6,300  Level Salt Lake Center
Sat 07:59:03 AM 44.4489 -109.0711 187° South 258 297 8,700 2,600 Climbing Salt Lake Center
Sat 08:00:00 AM 44.3901 -108.8322 154° Southeast  Level FlightAware Approximate
Sat 08:00:03 AM 44.4714 -108.9989 66° East 249 287 11,500  Level Salt Lake Center
Sat 08:01:00 AM 44.2836 -108.7613 154° Southeast  Level FlightAware Approximate
Sat 08:01:03 AM 44.5417 -108.9903 North 255 293 13,400  Level Salt Lake Center
Sat 08:02:00 AM 44.1749 -108.6975 158° South  Level FlightAware Approximate
Sat 08:02:04 AM 44.5478 -108.8819 85° East 294 338 15,900  Level Salt Lake Center
Sat 08:03:00 AM 44.0652 -108.6370 159° South  Level FlightAware Approximate
Sat 08:03:04 AM 44.4561 -108.8417 163° South 347 399 17,700  Level Salt Lake Center
Sat 08:04:04 AM 44.3569 -108.8156 169° South 364 419 19,300 1,600 Climbing Salt Lake Center
Sat 08:05:04 AM 44.2617 -108.7572 156° South 372 428 20,900 1,289 Climbing Salt Lake Center
Sat 08:06:05 AM 44.1617 -108.7011 158° South 382 440 21,900 1,289 Climbing Salt Lake Center
Sat 08:07:05 AM 44.0353 -108.6283 158° South 404 465 23,500 1,500 Climbing Salt Lake Center
Sat 08:08:05 AM 43.9292 -108.5672 157° South 413 475 24,900 1,240 Climbing Salt Lake Center
Sat 08:09:06 AM 43.8225 -108.5064 158° South 416 479 26,000 1,091 Climbing Salt Lake Center
Sat 08:10:06 AM 43.7136 -108.4444 158° South 423 487 27,100 1,000 Climbing Salt Lake Center
Sat 08:11:06 AM 43.6056 -108.3822 157° South 424 488 28,000 900 Climbing Salt Lake Center
Sat 08:12:06 AM 43.4936 -108.3206 158° South 430 495 28,900 793 Climbing Salt Lake Center
Sat 08:13:07 AM 43.3947 -108.2261 145° Southeast 443 510 29,600 645 Climbing Salt Lake Center
Sat 08:14:07 AM 43.2994 -108.1278 143° Southeast 433 498 30,200 600 Climbing Salt Lake Center
Sat 08:15:07 AM 43.2033 -108.0275 143° Southeast 437 503 30,800 397 Climbing Salt Lake Center
Sat 08:16:08 AM 43.1050 -107.9253 143° Southeast 441 507 31,000 99 Climbing Salt Lake Center
Sat 08:17:08 AM 43.0042 -107.8200 143° Southeast 452 520 31,000  Level Salt Lake Center
Sat 08:18:08 AM 42.9000 -107.7069 141° Southeast 468 539 31,000  Level Salt Lake Center
Sat 08:19:08 AM 42.7994 -107.6006 142° Southeast 475 547 31,000  Level Salt Lake Center
Sat 08:20:09 AM 42.6978 -107.4964 143° Southeast 477 549 31,000  Level Salt Lake Center
Sat 08:21:09 AM 42.5792 -107.3739 143° Southeast 479 551 31,000  Level Salt Lake Center
Sat 08:22:09 AM 42.4789 -107.2719 143° Southeast 473 544 31,000  Level Salt Lake Center
Sat 08:23:10 AM 42.3811 -107.1708 143° Southeast 465 535 31,000  Level Salt Lake Center
Sat 08:24:01 AM 42.2856 -107.0728 143° Southeast 454 522 31,000  Level Denver Center
Sat 08:25:01 AM 42.1894 -106.9769 144° Southeast 449 517 31,000  Level Denver Center
Sat 08:26:02 AM 42.0939 -106.8806 143° Southeast 447 514 31,000  Level Denver Center
Sat 08:27:02 AM 41.9975 -106.7858 144° Southeast 448 516 31,000  Level Denver Center
Sat 08:28:03 AM 41.8872 -106.6772 144° Southeast 442 509 31,000  Level Denver Center
Sat 08:29:03 AM 41.7906 -106.5819 144° Southeast 447 514 31,000  Level Denver Center
Sat 08:30:03 AM 41.6825 -106.4761 144° Southeast 446 513 31,000  Level Denver Center
Sat 08:31:04 AM 41.5883 -106.3847 144° Southeast 442 509 31,000  Level Denver Center
Sat 08:32:04 AM 41.4928 -106.2908 144° Southeast 444 511 31,000  Level Denver Center
Sat 08:33:05 AM 41.3800 -106.1814 144° Southeast 449 517 31,000  Level Denver Center
Sat 08:34:05 AM 41.2808 -106.0861 144° Southeast 456 525 31,000  Level Denver Center
Sat 08:35:17 AM 41.1800 -105.9900 144° Southeast 463 533 31,000  Level Denver Center
Sat 08:36:18 AM 41.0411 -105.8578 144° Southeast 477 549 31,000  Level Denver Center
Sat 08:37:18 AM 40.9450 -105.7647 144° Southeast 483 556 31,000 -694 Level Denver Center
Sat 08:38:19 AM 40.8347 -105.6586 144° Southeast 488 562 29,600 -1,983 Descending Denver Center
Sat 08:39:19 AM 40.7250 -105.5547 144° Southeast 490 564 27,000 -2,550 Descending Denver Center
Sat 08:40:19 AM 40.6233 -105.4592 144° Southeast 457 526 24,500 -2,479 Descending Denver Center
Sat 08:41:20 AM 40.5506 -105.3400 129° Southeast 423 487 22,000 -1,835 Descending Denver Center
Sat 08:42:20 AM 40.4694 -105.2194 131° Southeast 398 458 20,800 -1,587 Descending Denver Center
Sat 08:43:21 AM 40.3942 -105.1347 139° Southeast 365 420 18,800 -2,033 Descending Denver Center
Sat 08:44:21 AM 40.3556 -105.0189 114° Southeast 347 399 16,700 -2,200 Descending Denver Center
Sat 08:45:21 AM 40.3133 -104.8983 115° Southeast 360 414 14,400 -1,438 Descending Denver Center
Sat 08:46:22 AM 40.2589 -104.8017 126° Southeast 312 359 13,800 -942 Descending Denver Center
Sat 08:47:22 AM 40.1822 -104.7719 164° South 287 330 12,500 -1,835 Descending Denver Center
Sat 08:48:23 AM 40.1075 -104.7428 163° South 279 321 10,100 -1,934 Descending Denver Center
Sat 08:49:23 AM 40.0331 -104.7139 163° South 279 321 8,600 -1,636 Descending Denver Center
Sat 08:50:24 AM 39.9708 -104.6947 167° South 232 267 6,800 -1,339 Descending Denver Center
Sat 08:51:24 AM 39.9228 -104.6958 181° South 172 198 5,900 -750 Descending Denver Center
Sat 08:52:24 AM 39.8814 -104.6958 180° South 152 175 5,300 -600 Descending Denver Center

Login

Don't have an account? Register now (free) for customized features, flight alerts, and more!